Terminal Aerodrome Forecast
Issued by NWS

Home | Current Version | Previous Version | Text Only | Print | Product List | Glossary On
Versions: 1 2 3 4 5 6 7 8 9 10 11 12 13
000
FTUS45 KGJT 281125
TAFCNY
TAF
KCNY 281125Z 2812/0112 25007KT P6SM BKN050 OVC070
     FM281800 29010KT P6SM BKN060
     FM282000 30013G22KT P6SM SCT060
     FM010300 30008KT P6SM FEW250
     FM010700 27004KT P6SM SKC=

USA.gov is the U.S. government's official web portal to all federal, state and local government web resources and services.